阿蘇郡西原村小森のツイート 10km

阿蘇郡西原村小森周辺10kmからツイッターのつぶやきを検索した結果です。検索結果は地図に重ね合わせて表示しています。


検索結果

NOF nof_toro

人生を思いきり後ろ向きにエンジョイしている今日この頃。相棒のビーノ&TW200で駆け回ってます。好きなアーティストはウルフルズと聖飢魔II♪ホークスとサッカー・ドイツ代表とくまモンと熊本県を愛しています♪ペンギン、デジタルガジェット、バイク、カメラ、産業遺産&戦争遺産巡り、低山登山などが好きなインドア派(笑)。

東海大学学生寮の寮母だった竹原さんから聞く熊本地震当初の話は辛い。。。

でも実体験はもっともっと想像がつかないほどにきつかったんだろうなぁ。。。

これを少しでも未来に繋いでいかなきゃいけないんだ!

2019-04-25 15:08

アキティー MOx6Ls1cTkbZUzu

@b0norenofu6 宜しくお願いします

2019-04-25 14:46

RJFT METAR rjft_metar

Kumamoto Airport

RJFT 250500Z 21006KT 180V250 9999 FEW020 BKN030 23/18 Q1005

2019-04-25 14:35

熊本の浜ママ ni_nobuta

仕事柄、健康オタクです。音楽とヨガやダンスエアロが大好きなおばちゃんです。

@HZyaeFXmKUQFS0b 色合いも形も可愛いです😍

2019-04-25 14:25

丸山まるる 2OyrdQSZxudji58

ロアッソ🎵ベガルタ
応援してます。動物大好き
これアダ名です。丸いから丸山🤣

#オフトコカフェ
大津で練習あるときは是非こちらへ🎵予約必須❤旨し🍴😋オーナーご夫婦素敵❤今日はハンバーグいただきました。

2019-04-25 14:23

丸山まるる 2OyrdQSZxudji58

ロアッソ🎵ベガルタ
応援してます。動物大好き
これアダ名です。丸いから丸山🤣

@roassomoka4 たのしそぅ♪

2019-04-25 14:18

❦YUI❤︎TOM❦ tom_yui1125

☞Tsutomu❤︎Yui☜〜Since.2015.11.25〜\\③年突破//2児mama👩‍👦‍👦2019年4月3日離婚成立✨他の男には一切興味なし!!とむの事が大好き💗こちら完全裏垢‼信用出来る友達のみ許可しますんで悪しからず(ᐢ ˙꒳ ˙ ᐢ)知らん人は即ブロック!⚠️性悪女ですのでご注意を…🖕

GWなんしよー(´,,•ω•,,`)
とむと私は29、1、2日だけ休みだから
遠出は出来ないんだよねー。
三グリでもいこーかおもたけど
予報は雨wwwwww
どーしよ😔

うちに連休なんて関係ないだわ😫
なんなら連休中が1番忙し…

2019-04-25 14:08

RJFT METAR rjft_metar

Kumamoto Airport

RJFT 250400Z 19004KT 160V250 8000 FEW010 BKN030 23/19 Q1005

2019-04-25 14:05

Yü-ton Yuton_1000RR

CBR1000RR SC57(3代目🤔)

#EarthRacingTeam #ERT

I'm at ローソン 熊本菊陽中尾店 in 熊本県

2019-04-25 13:59

かーくん KaKodef_3

H9' 服

あほんちゃうちゃう

2019-04-25 13:54

かーくん KaKodef_3

H9' 服

顔でしか判断できんとかつまらんやつやなぁ〜〜〜🐒

2019-04-25 13:54

ひげしゃん 1i5ADx2TRiyhYYU

日本人による日本人の国を確立する事で、人生見直しやらねばなりません‼︎ サッカー サッカー テニス スポーツ 映画が大好きです‼︎

@dbn50 全く同感です!!

2019-04-25 13:50

ひげしゃん 1i5ADx2TRiyhYYU

日本人による日本人の国を確立する事で、人生見直しやらねばなりません‼︎ サッカー サッカー テニス スポーツ 映画が大好きです‼︎

@mondaijiMiZuKi @sharenewsjapan 辻元清美とは、厚顔無恥の、代表格ですね!!

自分のした事は棚に上げてよくも、あんな事が言えるもんだと感心します!!

その汚い顔はもう見たくないです( ;ᯅ; )

2019-04-25 13:49

MIJU★ mijucha27

KAT-TUN 竜也よりのgroup担♡一生hyphen/関ジャニ∞もひっそり♡オレンジ担/音楽もライブもジャンル問わず好き♡/ディズニー大好き♡ /ライオンズfan/転妻LIFE/ 共通項ある方大歓迎! 九州hyphenさん特に探してます♡お友達が欲しいです!日常も呟きますのでご了承ください(*˘︶˘*)

妊婦ジンクスを信じて、ドリームジャンボを買ってみた!!
当たらないと思ってるけど、たまにはね(笑)

2019-04-25 13:44

NOF nof_toro

人生を思いきり後ろ向きにエンジョイしている今日この頃。相棒のビーノ&TW200で駆け回ってます。好きなアーティストはウルフルズと聖飢魔II♪ホークスとサッカー・ドイツ代表とくまモンと熊本県を愛しています♪ペンギン、デジタルガジェット、バイク、カメラ、産業遺産&戦争遺産巡り、低山登山などが好きなインドア派(笑)。

熊本県庁の方の話によると、南阿蘇村は人口が1万人弱ながら、熊本地震後も県外からの移住者が増え続けているそうです♪

2019-04-25 13:44

MIJU★ mijucha27

KAT-TUN 竜也よりのgroup担♡一生hyphen/関ジャニ∞もひっそり♡オレンジ担/音楽もライブもジャンル問わず好き♡/ディズニー大好き♡ /ライオンズfan/転妻LIFE/ 共通項ある方大歓迎! 九州hyphenさん特に探してます♡お友達が欲しいです!日常も呟きますのでご了承ください(*˘︶˘*)

@sy7_opr 寒い地方と田舎は付いてる気がするよ!
私の地元はこんなカッコイイ感じじゃないやつ(笑)田舎で降りる人少なくて、冷暖房もったいないから昼間と夜はこういう車両だったよー

2019-04-25 13:42

NOF nof_toro

人生を思いきり後ろ向きにエンジョイしている今日この頃。相棒のビーノ&TW200で駆け回ってます。好きなアーティストはウルフルズと聖飢魔II♪ホークスとサッカー・ドイツ代表とくまモンと熊本県を愛しています♪ペンギン、デジタルガジェット、バイク、カメラ、産業遺産&戦争遺産巡り、低山登山などが好きなインドア派(笑)。

ランチは南阿蘇村の「ちきゅうや」でハーブ鶏の唐揚げ♪

熊本市役所の裏から南阿蘇村へ移転後、ようやく来れた♪

この美味くて巨大な唐揚げは健在!

ただかつては食べれた唐揚げタワーが完食出来なくなっていて、残りをお持ち帰りにしても…

2019-04-25 13:34

まりも♪ marimo_taiko105

※女じゃないよ 男だよ※ 19 太鼓の達人/メダルゲーム/欅坂46⊿/日向坂46⊿/ポケモンGO(青、TL39) ⤵︎ ︎質問箱はURLから⤵︎ ︎

今日も一日 (@ 阿蘇くまもと空港 in 益城町, 熊本県)

2019-04-25 13:21

NOF nof_toro

人生を思いきり後ろ向きにエンジョイしている今日この頃。相棒のビーノ&TW200で駆け回ってます。好きなアーティストはウルフルズと聖飢魔II♪ホークスとサッカー・ドイツ代表とくまモンと熊本県を愛しています♪ペンギン、デジタルガジェット、バイク、カメラ、産業遺産&戦争遺産巡り、低山登山などが好きなインドア派(笑)。

数日前まで天気予報は雨だったのに♪

2019-04-25 12:58

NOF nof_toro

人生を思いきり後ろ向きにエンジョイしている今日この頃。相棒のビーノ&TW200で駆け回ってます。好きなアーティストはウルフルズと聖飢魔II♪ホークスとサッカー・ドイツ代表とくまモンと熊本県を愛しています♪ペンギン、デジタルガジェット、バイク、カメラ、産業遺産&戦争遺産巡り、低山登山などが好きなインドア派(笑)。

熊本が大好きでよかった!

2019-04-25 12:50

かーくん KaKodef_3

H9' 服

勃起しながらフラペチーノ()

2019-04-25 12:49

かーくん KaKodef_3

H9' 服

今日チンポジ悪い

2019-04-25 12:49

NOF nof_toro

人生を思いきり後ろ向きにエンジョイしている今日この頃。相棒のビーノ&TW200で駆け回ってます。好きなアーティストはウルフルズと聖飢魔II♪ホークスとサッカー・ドイツ代表とくまモンと熊本県を愛しています♪ペンギン、デジタルガジェット、バイク、カメラ、産業遺産&戦争遺産巡り、低山登山などが好きなインドア派(笑)。

いつきても反則的な車窓!!

2019-04-25 12:41

RJFT METAR rjft_metar

Kumamoto Airport

RJFT 250300Z VRB02KT 6000 FEW008 SCT015 BKN020 21/18 Q1006

2019-04-25 12:36

NOF nof_toro

人生を思いきり後ろ向きにエンジョイしている今日この頃。相棒のビーノ&TW200で駆け回ってます。好きなアーティストはウルフルズと聖飢魔II♪ホークスとサッカー・ドイツ代表とくまモンと熊本県を愛しています♪ペンギン、デジタルガジェット、バイク、カメラ、産業遺産&戦争遺産巡り、低山登山などが好きなインドア派(笑)。

ばっ!?

NHK熊本、TKU、RKK、KAB、KKTが取材にきとらす!

・・・って熊本のテレビ局全部やん!!

2019-04-25 12:35

ともゆき zhixingshangti1

20歳 砂糖対応。誰でも分け隔て無く。 法面工、ラフト

この曲もhip-hopの象徴って曲だな〜

2019-04-25 12:35

NOF nof_toro

人生を思いきり後ろ向きにエンジョイしている今日この頃。相棒のビーノ&TW200で駆け回ってます。好きなアーティストはウルフルズと聖飢魔II♪ホークスとサッカー・ドイツ代表とくまモンと熊本県を愛しています♪ペンギン、デジタルガジェット、バイク、カメラ、産業遺産&戦争遺産巡り、低山登山などが好きなインドア派(笑)。

断層がど真ん中を通り、現在ダムをずらす工事を行なっている大切畑ダム。

なお普段は立入禁止です!

2019-04-25 12:26

KOZO kozokozoda_no

【南阿蘇村移住しました】防災士、被災地支援(東北・和歌山・熊本・朝倉・小屋浦)、旅、レッズ、鉄道(JR完乗・時刻表鉄)、パンダ、猫、水曜どうでしょう、 ゲストハウス運営、四国八十八か国歩き遍路 ※野球は大っキライです!

今日も仕事でいい汗かいた
#だから今日はプレモル

2019-04-25 12:20

KOZO kozokozoda_no

【南阿蘇村移住しました】防災士、被災地支援(東北・和歌山・熊本・朝倉・小屋浦)、旅、レッズ、鉄道(JR完乗・時刻表鉄)、パンダ、猫、水曜どうでしょう、 ゲストハウス運営、四国八十八か国歩き遍路 ※野球は大っキライです!

@gonta_mofu111 それはそれで辛いですね

2019-04-25 12:18

RJFT METAR rjft_metar

Kumamoto Airport

RJFT 250200Z VRB02KT 8000 FEW002 SCT008 BKN010 21/19 Q1006

2019-04-25 12:06

マッシヴ=ゾエマン@黒のFD2 Zoemantaro_fd2

なんだかんだ言いながら、生きてます。はい。 最近はグラベルロードに乗って道なき道を疾走しています。最近あんまり乗ってないけど車でサーキットも走ります。ゲームもします。お見知り置きを➡︎🎮🏎🚴‍♂️⚾️🏐💪📸🥩

LINE103億赤字、スマホ決済の販促かさむ : 経済 : 読売新聞オンライン />
スマホ決済最近多くなりすぎて、何がなんだかなぁ〜

僕はぱいぱい。

2019-04-25 12:05

マッシヴ=ゾエマン@黒のFD2 Zoemantaro_fd2

なんだかんだ言いながら、生きてます。はい。 最近はグラベルロードに乗って道なき道を疾走しています。最近あんまり乗ってないけど車でサーキットも走ります。ゲームもします。お見知り置きを➡︎🎮🏎🚴‍♂️⚾️🏐💪📸🥩

にわか野郎なのにケイデンス測定できるサイコン欲しい。

2019-04-25 12:05

モコ a.k.a. リズムボーイ moccos23

LuvBoxCrew 錯乱boyz 社畜CREW MOCCOS&4580 Keylight Distortion

I'm at 火の国文龍 菊陽バイパス店 in 菊陽町, 熊本県

2019-04-25 12:03

NOF nof_toro

人生を思いきり後ろ向きにエンジョイしている今日この頃。相棒のビーノ&TW200で駆け回ってます。好きなアーティストはウルフルズと聖飢魔II♪ホークスとサッカー・ドイツ代表とくまモンと熊本県を愛しています♪ペンギン、デジタルガジェット、バイク、カメラ、産業遺産&戦争遺産巡り、低山登山などが好きなインドア派(笑)。

西原村役場 復興建設課の山田さんより熊本地震の西原村の状況を伺ったけど、地域コミュニティの重要さや普段から行う訓練の大切さを再認識。

それにしても標高が最大で2.5mほど沈む揺れって。。。

2019-04-25 11:57

えだまめしゔぁS+ EDAMAMESIVA

【好きなアーティスト】あべまおおつかあいきものがかり (^-^) ♡錦戸さやか第2章 待機中*\(^o^)/* \(*Ü*)/\(*Ü*)/\ ソロシンガー淵上愛里の大ファン\(^o^)/\(^o^)/\ i♥posiの広瀬杏楠を応援するアカウント

@knzk_noa 推しと幸せになったほうが勝ちです!

2019-04-25 11:40

Takumi Hirano 1115Hirano

新潟県上越市-熊本市 2018年新社会人 テニス好き 時々スパイダーマン

中国ではエンドゲーム公開してるから
SNS系は注意せねば…

2019-04-25 11:16

show@ポンコツ 12show12

ロアッソ熊本。マスコット。バイク。残業(腐)。

I'm at 益城ファーマーズビレッジ ファム in 益城町, 熊本県

2019-04-25 11:16

RJFT METAR rjft_metar

Kumamoto Airport

RJFT 250137Z 29003KT 250V340 7000 FEW002 BKN007 BKN015 20/19 Q1006 RMK 1ST002 5ST007 7CU015 A2973

2019-04-25 11:06

NOF nof_toro

人生を思いきり後ろ向きにエンジョイしている今日この頃。相棒のビーノ&TW200で駆け回ってます。好きなアーティストはウルフルズと聖飢魔II♪ホークスとサッカー・ドイツ代表とくまモンと熊本県を愛しています♪ペンギン、デジタルガジェット、バイク、カメラ、産業遺産&戦争遺産巡り、低山登山などが好きなインドア派(笑)。

@moriyann 今日は大人の修学旅行です♪

2019-04-25 11:03

show@ポンコツ 12show12

ロアッソ熊本。マスコット。バイク。残業(腐)。

I'm at キッチンママ in 熊本市, 熊本県

2019-04-25 11:03

NOF nof_toro

人生を思いきり後ろ向きにエンジョイしている今日この頃。相棒のビーノ&TW200で駆け回ってます。好きなアーティストはウルフルズと聖飢魔II♪ホークスとサッカー・ドイツ代表とくまモンと熊本県を愛しています♪ペンギン、デジタルガジェット、バイク、カメラ、産業遺産&戦争遺産巡り、低山登山などが好きなインドア派(笑)。

熊本県上益城郡益城町杉堂地区にある「布田川断層帯」と「四賢婦人記念館」。

あらためて熊本地震の揺れの激しさを目の当たりにした。。。

2019-04-25 10:54

スガッシュ⭐️熊本のパワースポット💪🏾❤️ sgash23

⚽️ロアッソ熊本マッスルアンバサダー(スタジアムDJ)/💎マッスルアップ熊本/🍀PersonalTrainer/ 2017,18ボディビルMr.熊本優勝🏆🏆/熊本県民の総筋肉量アップ💪🏾✨を目標に日々奮闘中🔥運動の楽しさ伝えたーい(´∀`)💓

@ososos123456781 @himitukichinhi1 スガッシュのチャーミングポイントは大腿四頭筋なのでつい反応してしまいました😂 僕もそれやってみたいです。

2019-04-25 10:43

行方不明 Missing_rider

早くない方の隼乗り

@divisionf1968 塩っ気が足りない気がして…でも濃いんですよ…
ただ味噌汁感が…

2019-04-25 10:39

行方不明 Missing_rider

早くない方の隼乗り

@LDOkEWe5Hc0wQl6 あの甘い醤油なたまごご飯は美味いです、むしろ好き。
でも…甘い味噌汁だけはっっ!味噌汁だけは塩っぱくあってほしい!!

2019-04-25 10:37

道の駅大津スタッフの独り言(熊本県 michinoekiozu

熊本県の大津道の駅のスタッフです。国道57号線、ミルクロード入口手前にあります。ちょうど阿蘇の玄関口〜。 Facebookページもヨロシクお願いします。【いいね!】 ★営業時間:物産館、工芸館9:00〜18:00あか牛レストランよかよか10:00〜18:00(os17:30)

グッドイモーニング👌

熊本県大津町は曇りです!

詳細はブログで…

#タンクマ #あそびぼん

2019-04-25 10:35

マッキーNA8C testarrow

ロードスター,ザ・ヒーナキャット,Gacharic Spinが大好き。 写真も撮ったり。BOZの服もたまに着たり。現在4台目のロードスター(NA8→NA8→ND5→NA8)カメラ(O-MD E-M5mk2,E-P1)

@bass_chi ちのちゃんおはよ♪

ラーメンも食べられたんだね😁

昨日はホント楽しかったよ♪ヽ(´▽`)/
ちのバ前に変なおじさんができるとは思わなかったな( ̄∇ ̄*)ゞ
アーケードのソロもガン見出来たし、お社歌様のチェキ…

2019-04-25 10:26

Ayu 1BLQLqFJxuomR8G

こんにちは。 子育てに日々悪戦苦闘中の主婦ですヽ( ̄д ̄;)ノ

ビール女子のためのビール入門ガイド | ビール女子 @beergirl_netより

2019-04-25 10:25

けーいち 9SQ

見習い赤魔道士 / webとembeddedとGISが好き / ES,SC,RISS /お仕事は気象・防災地図生成エンジンなど / RESTfulトイレ, Smart Mirror, SECCON TOWER, BEEP on USB, AkiCart, など色々作ってます

🛬 (@ 阿蘇くまもと空港 in 益城町, 熊本県)

2019-04-25 10:11

マッキーNA8C testarrow

ロードスター,ザ・ヒーナキャット,Gacharic Spinが大好き。 写真も撮ったり。BOZの服もたまに着たり。現在4台目のロードスター(NA8→NA8→ND5→NA8)カメラ(O-MD E-M5mk2,E-P1)

@yrfmo_yrfmo その通りです♪ヽ(´▽`)/

福岡から行った方が圧倒的に楽でしたが、行ける時に行っておこうかと( ̄∇ ̄*)ゞ

2019-04-25 10:10

マッキーNA8C testarrow

ロードスター,ザ・ヒーナキャット,Gacharic Spinが大好き。 写真も撮ったり。BOZの服もたまに着たり。現在4台目のロードスター(NA8→NA8→ND5→NA8)カメラ(O-MD E-M5mk2,E-P1)

@mi_nao3 熊本城です(`・ω・´)ゞ

2019-04-25 10:06

マッキーNA8C testarrow

ロードスター,ザ・ヒーナキャット,Gacharic Spinが大好き。 写真も撮ったり。BOZの服もたまに着たり。現在4台目のロードスター(NA8→NA8→ND5→NA8)カメラ(O-MD E-M5mk2,E-P1)

@Hichan_THC ひーちゃんおはよ☆

ワンマンと運転で疲れ溜まってたんだろうね😌
昨日のワンマンはホント楽しかったよ♪ヽ(´▽`)/
飾りキラリがあの順番でで思わずニヤケたw
アソビタイはみんなでまわって楽しかったしね😆…

2019-04-25 10:05

RJFT METAR rjft_metar

Kumamoto Airport

RJFT 250038Z VRB01KT 4500 BR FEW002 SCT006 BKN015 19/18 Q1006 RMK 1ST002 3ST006 6CU015 A2973

2019-04-25 10:02

toshiya@エニワズキ Toshiya0109

ぼっろいグースでフラフラしとります。最近アニメ見始めました。ダンまちベル君大好きです(°▽°)

@kuugadoragon 九州だとBSかニコ生しか見れないやつっすねw

2019-04-25 09:39

RJFT METAR rjft_metar

Kumamoto Airport

RJFT 250015Z VRB02KT 3500 BR FEW002 SCT005 BKN008 19/18 Q1006 RMK 1ST002 3ST005 6ST008 A2973

2019-04-25 09:35

toshiya@エニワズキ Toshiya0109

ぼっろいグースでフラフラしとります。最近アニメ見始めました。ダンまちベル君大好きです(°▽°)

@kuugadoragon あ、そなんですか💦失礼しましたm(_ _)m

2019-04-25 09:33

かーくん KaKodef_3

H9' 服

#いいねきたらする

(😊)名前→
(🕶)印象→
(🔔)LINE交換できる?→
(📞) 電話できる?→
(👩‍❤️‍💋‍👩) お泊まりできる?→
(🤱) 🏩できる?→
(🐵) 一緒にやるとしたら?→
(📸)一緒に写真撮れる?→
(💬)一言→

2019-04-25 09:32

toshiya@エニワズキ Toshiya0109

ぼっろいグースでフラフラしとります。最近アニメ見始めました。ダンまちベル君大好きです(°▽°)

@kuugadoragon 盾の勇者、面白いすょ(°▽°)

2019-04-25 09:32

ゆうすげ1号@南阿蘇 MARyusuge1

南阿蘇鉄道沿線情報(非公式) ◆見晴台駅が舞台の『午後の紅茶』CMロケ地巡りツアー 4/21(日)開催!◆2022年度中の全線復旧めざし頑張っています◆

#午後の紅茶 #南阿蘇鉄道 CMロケ地巡りツアーと同じ日だったんですが、ほんと前夜4/20は熊本市内近郊の(菊陽大津八代方面含め)宿という宿がどこもネット予約できないほど全部満室で、物凄い観客動員数だったのが傍目にも良く分かりまし…

2019-04-25 09:26

RJFT METAR rjft_metar

Kumamoto Airport

RJFT 242300Z VRB02KT 1500 R07/P1800N BR BCFG FEW001 SCT002 BKN003 18/18 Q1007

2019-04-25 09:05

とある学校の売店日記 baitensaito

熊本の“とある学校”の中で売店の店番をしています。フォローして下さった方にはフォローバックする事がありますので 宜しくお願いします😊

来年もTGCが熊本に来るそうです

2019-04-25 09:00

えだまめしゔぁS+ EDAMAMESIVA

【好きなアーティスト】あべまおおつかあいきものがかり (^-^) ♡錦戸さやか第2章 待機中*\(^o^)/* \(*Ü*)/\(*Ü*)/\ ソロシンガー淵上愛里の大ファン\(^o^)/\(^o^)/\ i♥posiの広瀬杏楠を応援するアカウント

お金を使う気ないのに

が抜けてるw

2019-04-25 08:28

えだまめしゔぁS+ EDAMAMESIVA

【好きなアーティスト】あべまおおつかあいきものがかり (^-^) ♡錦戸さやか第2章 待機中*\(^o^)/* \(*Ü*)/\(*Ü*)/\ ソロシンガー淵上愛里の大ファン\(^o^)/\(^o^)/\ i♥posiの広瀬杏楠を応援するアカウント

@rcseiji あ!私はパソコンじゃなくて
プレステ4か5買って
ストリートファイターVのネット対戦環境ととのえて
りょうちゃん(超かわいい元コンカフェキャスト)と遊びたいですwww
@mashiro_ck

2019-04-25 08:23

えだまめしゔぁS+ EDAMAMESIVA

【好きなアーティスト】あべまおおつかあいきものがかり (^-^) ♡錦戸さやか第2章 待機中*\(^o^)/* \(*Ü*)/\(*Ü*)/\ ソロシンガー淵上愛里の大ファン\(^o^)/\(^o^)/\ i♥posiの広瀬杏楠を応援するアカウント

@rcseiji ほんそれ。

だから 広島で引きこもりたいですw

2019-04-25 08:12

行くぜ!やまさん yamasanman

よろしくおねがいします~ モータースポーツと旅行&温泉が趣味・・ 暇と懐に余裕があれば各地に出没します。 最近は、ゆるキャラさんに興味深々!!分身さんも続々追加中~
てるとも№570
ごかぼちゃん応援隊12番
うなも使用人№81

@Shiki_kapal =≡Σ((( つ•̀ω•́)つビューン

2019-04-25 08:12

えだまめしゔぁS+ EDAMAMESIVA

【好きなアーティスト】あべまおおつかあいきものがかり (^-^) ♡錦戸さやか第2章 待機中*\(^o^)/* \(*Ü*)/\(*Ü*)/\ ソロシンガー淵上愛里の大ファン\(^o^)/\(^o^)/\ i♥posiの広瀬杏楠を応援するアカウント

@cherish_hoshino ランドセルからって.....

2019-04-25 08:11